Prinsendam — PBGH — position and weather

sailwx.info

Track history (hours):
 
Tides and Currents Weather Stations Pressure Air Temp Water Temp Dewpoint Dewpoint Depression Visibility Wind Speed Wind Dir Waves Ship Positions

Prinsendam

Operator: Holland America Line

Last reported at 2019-May-20 17:01 UTC. Time now 2019-May-20 17:28 UTC.
Position N 52°28' E 004°36'.

Type: Ship. MMSI: 244126000.

Date/timePositionNaut miles runAvg speedWind from/ knotsBaromVisibWave heightAir tempDewpointWater temp
2019-May-20 17:01N 52°28' E 004°36'2 3.4
2019-May-20 16:30N 52°28' E 004°39'5 9.0
2019-May-20 16:00N 52°26' E 004°46'4 8.0
2019-May-20 15:30N 52°25' E 004°52'3 5.2
2019-May-20 15:01N 52°23' E 004°55'0 0.0
2019-May-20 14:30N 52°23' E 004°55'0 0.0
2019-May-20 14:00N 52°23' E 004°55'0 0.0
2019-May-20 13:30N 52°23' E 004°55'0 0.0
2019-May-20 13:00N 52°23' E 004°55'0 0.0
2019-May-20 12:30N 52°23' E 004°55'0 0.0
2019-May-20 12:00N 52°23' E 004°55'0 0.0
2019-May-20 11:30N 52°23' E 004°55'0 0.0
2019-May-20 11:00N 52°23' E 004°55'0 0.0
2019-May-20 10:30N 52°23' E 004°55'0 0.0
2019-May-20 10:00N 52°23' E 004°55'0 0.0
2019-May-20 09:30N 52°23' E 004°55'0 0.0
2019-May-20 09:00N 52°23' E 004°55'0 0.0
2019-May-20 08:30N 52°23' E 004°55'0 0.0
2019-May-20 08:00N 52°23' E 004°55'0 0.0
2019-May-20 07:30N 52°23' E 004°55'0 0.0
2019-May-20 06:57N 52°23' E 004°55'0 0.0
2019-May-20 06:30N 52°23' E 004°55'0 0.0
2019-May-20 06:00N 52°23' E 004°55'0 0.0
2019-May-20 05:30N 52°23' E 004°55'0 0.1
2019-May-20 05:01N 52°23' E 004°55'1 2.1
2019-May-20 04:30N 52°23' E 004°54'3 7.0
2019-May-20 04:00N 52°25' E 004°49'4 7.5
2019-May-20 03:31N 52°26' E 004°43'4 7.4
2019-May-20 03:01N 52°28' E 004°37'1 1.1
2019-May-20 02:31N 52°28' E 004°37'2 4.2
2019-May-20 02:01N 52°28' E 004°33'510.4
2019-May-20 01:30N 52°29' E 004°25'510.6
2019-May-20 01:00N 52°29' E 004°16'713.6
2019-May-20 00:31N 52°28' E 004°05'714.5
2019-May-20 00:00N 52°27' E 003°53'917.5
2019-May-19 23:30N 52°25' E 003°39'816.1
2019-May-19 23:00N 52°19' E 003°30'816.7
2019-May-19 22:30N 52°11' E 003°26'1514.7
2019-May-19 21:30N 51°56' E 003°23'713.3
2019-May-19 21:00N 51°50' E 003°19'712.8
2019-May-19 20:29N 51°44' E 003°15'4 7.8
2019-May-19 19:58N 51°41' E 003°19'511.4
2019-May-19 19:30N 51°36' E 003°23'4 9.0
2019-May-19 19:00N 51°32' E 003°26'510.6
2019-May-19 18:31N 51°28' E 003°31'4 8.2
2019-May-19 18:01N 51°26' E 003°37'611.5
2019-May-19 17:30N 51°22' E 003°44'816.0
2019-May-19 17:00N 51°23' E 003°57'4 7.1
2019-May-19 16:30N 51°23' E 004°02'612.8
2019-May-19 16:01N 51°23' E 004°13'5 9.7
2019-May-19 15:30N 51°19' E 004°16'3 7.0
2019-May-19 15:00N 51°16' E 004°18'3 6.8
2019-May-19 14:30N 51°14' E 004°23'1 2.4
2019-May-19 14:00N 51°13' E 004°24'0 0.0
2019-May-19 13:31N 51°13' E 004°24'0 0.0
2019-May-19 12:57N 51°13' E 004°24'0 0.0
2019-May-19 12:30N 51°13' E 004°24'0 0.0
2019-May-19 12:00N 51°13' E 004°24'0 0.0
2019-May-19 11:30N 51°13' E 004°24'0 0.0
2019-May-19 11:00N 51°13' E 004°24'0 0.0
2019-May-19 10:30N 51°13' E 004°24'0 0.0
2019-May-19 10:00N 51°13' E 004°24'0 0.0
2019-May-19 09:30N 51°13' E 004°24'0 0.0
2019-May-19 09:00N 51°13' E 004°24'0 0.0
2019-May-19 08:30N 51°13' E 004°24'0 0.0
2019-May-19 08:00N 51°13' E 004°24'0 0.0
2019-May-19 07:30N 51°13' E 004°24'0 0.0
2019-May-19 07:00N 51°13' E 004°24'0 0.0
2019-May-19 06:30N 51°13' E 004°24'0 0.0
2019-May-19 06:01N 51°13' E 004°24'0 0.0
2019-May-19 05:30N 51°13' E 004°24'0 0.0
2019-May-19 05:00N 51°13' E 004°24'0 0.0
2019-May-19 04:30N 51°13' E 004°24'0 0.0
2019-May-19 04:01N 51°13' E 004°24'0 0.0
2019-May-19 03:30N 51°13' E 004°24'0 0.0
2019-May-19 03:00N 51°13' E 004°24'0 0.0
2019-May-19 02:30N 51°13' E 004°24'0 0.0
2019-May-19 02:01N 51°13' E 004°24'0 0.0
2019-May-19 01:30N 51°13' E 004°24'0 0.0
2019-May-19 01:00N 51°13' E 004°24'0 0.0
2019-May-19 00:31N 51°13' E 004°24'0 0.0
2019-May-19 00:00N 51°13' E 004°24'0 0.0
2019-May-18 23:30N 51°13' E 004°24'0 0.0
2019-May-18 23:00N 51°13' E 004°24'0 0.0
2019-May-18 22:30N 51°13' E 004°24'0 0.0
2019-May-18 22:00N 51°13' E 004°24'0 0.0
2019-May-18 21:30N 51°13' E 004°24'0 0.0
2019-May-18 21:00N 51°13' E 004°24'0 0.0
2019-May-18 20:30N 51°13' E 004°24'0 0.0
2019-May-18 20:00N 51°13' E 004°24'0 0.0
2019-May-18 19:31N 51°13' E 004°24'0 0.0
2019-May-18 19:00N 51°13' E 004°24'0 0.0
2019-May-18 18:30N 51°13' E 004°24'0 0.0
2019-May-18 17:57N 51°13' E 004°24'0 0.0
2019-May-18 17:30N 51°13' E 004°24'0 0.0
2019-May-18 17:00N 51°13' E 004°24'0 0.0
2019-May-18 16:30N 51°13' E 004°24'0 0.0
2019-May-18 16:00N 51°13' E 004°24'0 0.0
2019-May-18 15:30N 51°13' E 004°24'0 0.0
2019-May-18 15:00N 51°13' E 004°24'0 0.0
2019-May-18 14:30N 51°13' E 004°24'0 0.0
2019-May-18 14:00N 51°13' E 004°24'0 0.0
2019-May-18 13:30N 51°13' E 004°24'0 0.0
2019-May-18 13:00N 51°13' E 004°24'0 0.0
2019-May-18 12:30N 51°13' E 004°24'0 0.0
2019-May-18 12:00N 51°13' E 004°24'0 0.0
2019-May-18 11:30N 51°13' E 004°24'0 0.0
2019-May-18 11:00N 51°13' E 004°24'0 0.0
2019-May-18 10:30N 51°13' E 004°24'0 0.0
2019-May-18 10:00N 51°13' E 004°24'0 0.0
2019-May-18 09:30N 51°13' E 004°24'0 0.0
2019-May-18 09:00N 51°13' E 004°24'0 0.0
2019-May-18 08:30N 51°13' E 004°24'0 0.0
2019-May-18 08:00N 51°13' E 004°24'0 0.0
2019-May-18 07:30N 51°13' E 004°24'0 0.0
2019-May-18 07:00N 51°13' E 004°24'0 0.0
2019-May-18 06:30N 51°13' E 004°24'0 0.0
2019-May-18 06:00N 51°13' E 004°24'0 0.0
2019-May-18 05:30N 51°13' E 004°24'0 0.0
2019-May-18 05:00N 51°13' E 004°24'0 0.0
2019-May-18 04:30N 51°13' E 004°24'0 0.0
2019-May-18 04:00N 51°13' E 004°24'0 0.0
2019-May-18 03:30N 51°13' E 004°24'0 0.0
2019-May-18 03:00N 51°13' E 004°24'0 0.0
2019-May-18 02:30N 51°13' E 004°24'0 0.0
2019-May-18 02:00N 51°13' E 004°24'0 0.6
2019-May-18 01:30N 51°14' E 004°24'3 6.4
2019-May-18 01:00N 51°15' E 004°19'4 8.2
2019-May-18 00:31N 51°19' E 004°16'510.7
2019-May-18 00:00N 51°24' E 004°12'713.0
2019-May-17 23:30N 51°23' E 004°02'4 7.3
2019-May-17 23:00N 51°23' E 003°56'612.3
2019-May-17 22:30N 51°21' E 003°47'611.5
2019-May-17 22:01N 51°26' E 003°41'510.1
2019-May-17 21:30N 51°25' E 003°33'612.1
2019-May-17 21:01N 51°24' E 003°24'713.9
2019-May-17 20:30N 51°24' E 003°12'3 6.2
2019-May-17 20:00N 51°21' E 003°12'1 1.2
2019-May-17 19:28N 51°20' E 003°12'0 0.0
2019-May-17 18:55N 51°20' E 003°12'0 0.0
2019-May-17 18:28N 51°20' E 003°12'0 0.0
2019-May-17 17:58N 51°20' E 003°12'0 0.0
2019-May-17 17:28N 51°20' E 003°12'0 0.0
2019-May-17 16:58N 51°20' E 003°12'0 0.0
2019-May-17 16:28N 51°20' E 003°12'0 0.0
2019-May-17 15:58N 51°20' E 003°12'0 0.0
2019-May-17 15:28N 51°20' E 003°12'0 0.0
2019-May-17 14:58N 51°20' E 003°12'0 0.0
2019-May-17 14:28N 51°20' E 003°12'0 0.0
2019-May-17 13:58N 51°20' E 003°12'0 0.0
2019-May-17 13:28N 51°20' E 003°12'0 0.0
2019-May-17 13:01N 51°20' E 003°12'0 0.0
2019-May-17 12:31N 51°20' E 003°12'0 0.0
2019-May-17 12:01N 51°20' E 003°12'0 0.0
2019-May-17 11:28N 51°20' E 003°12'0 0.0
2019-May-17 10:58N 51°20' E 003°12'0 0.0
2019-May-17 10:28N 51°20' E 003°12'0 0.0
2019-May-17 09:58N 51°20' E 003°12'0 0.0
2019-May-17 09:28N 51°20' E 003°12'0 0.0
2019-May-17 08:58N 51°20' E 003°12'0 0.0
2019-May-17 08:25N 51°20' E 003°12'0 0.0
2019-May-17 07:58N 51°20' E 003°12'0 0.0
2019-May-17 07:31N 51°20' E 003°12'0 0.0
2019-May-17 06:58N 51°20' E 003°12'0 0.0
2019-May-17 06:25N 51°20' E 003°12'0 0.0
2019-May-17 05:52N 51°20' E 003°12'0 0.4
2019-May-17 05:30N 51°20' E 003°13'5 7.2
2019-May-17 04:50N 51°24' E 003°07'413.3
2019-May-17 04:30N 51°25' E 002°60'714.1
2019-May-17 04:00N 51°25' E 002°49'910.5
2019-May-17 03:06N 51°22' E 002°34'210.7
2019-May-17 02:56N 51°22' E 002°32'614.1
2019-May-17 02:30N 51°20' E 002°23'714.8
2019-May-17 02:00N 51°15' E 002°13'714.9
2019-May-17 01:30N 51°12' E 002°03'816.0
2019-May-17 01:00N 51°08' E 001°51'816.4
2019-May-17 00:30N 51°03' E 001°41'917.4
2019-May-17 00:00N 50°57' E 001°31'1017.3
2019-May-16 23:27N 50°48' E 001°25'1216.2
2019-May-16 22:44N 50°39' E 001°14'715.8
2019-May-16 22:15N 50°33' E 001°06'615.6
2019-May-16 21:54N 50°30' E 000°59'815.3
2019-May-16 21:24N 50°27' E 000°48'915.3
2019-May-16 20:49N 50°25' E 000°34'515.5
2019-May-16 20:30N 50°26' E 000°27'815.7
2019-May-16 20:01N 50°24' E 000°15'816.3
2019-May-16 19:31N 50°22' E 000°02'917.4
2019-May-16 19:00N 50°19' W 000°11'1019.7
2019-May-16 18:30N 50°15' W 000°25'1020.1
2019-May-16 18:01N 50°14' W 000°40'1020.2
2019-May-16 17:31N 50°11' W 000°56'1020.1
2019-May-16 17:00N 50°09' W 001°11'1019.8
2019-May-16 16:30N 50°07' W 001°26'1019.2
2019-May-16 16:00N 50°05' W 001°41'918.6
2019-May-16 15:30N 50°03' W 001°55'918.0
2019-May-16 15:00N 50°00' W 002°08'917.4
2019-May-16 14:30N 49°58' W 002°21'817.0
2019-May-16 14:01N 49°55' W 002°34'816.7
2019-May-16 13:30N 49°53' W 002°46'816.8
2019-May-16 13:00N 49°51' W 002°59'816.6
2019-May-16 12:30N 49°50' W 003°11'816.6
2019-May-16 12:00N 49°49' W 003°24'816.4
2019-May-16 11:30N 49°49' W 003°37'816.5
2019-May-16 11:01N 49°49' W 003°50'816.6
2019-May-16 10:30N 49°49' W 004°03'816.6
2019-May-16 10:00N 49°49' W 004°16'1216.5
2019-May-16 09:18N 49°48' W 004°34'816.5
2019-May-16 08:47N 49°48' W 004°47'516.6
2019-May-16 08:30N 49°48' W 004°54'816.5
2019-May-16 08:01N 49°48' W 005°07'816.6
2019-May-16 07:30N 49°48' W 005°20'1017.0
2019-May-16 06:54N 49°47' W 005°36'1117.3
2019-May-16 06:16N 49°48' W 005°52'1118.6
2019-May-16 05:41N 49°58' W 006°01'517.6
2019-May-16 05:24N 50°03' W 006°01'718.9
2019-May-16 05:00N 50°10' W 006°01'628870.7
2019-May-16 05:00N 51°12' W 006°00'4759.0 100 / 231011.010.8 13.011.111.8
2019-May-16 04:12N 50°25' W 006°01'2217.5
2019-May-16 02:57N 50°47' W 006°01'917.4
2019-May-16 02:27N 50°56' W 006°00'817.6
2019-May-16 02:00N 51°03' W 006°00'918.1
2019-May-16 01:30N 51°13' W 005°60'918.7
2019-May-16 01:00N 51°22' W 005°60'1019.1
2019-May-16 00:30N 51°31' W 005°60'1019.3
2019-May-16 00:00N 51°41' W 005°59'61077.7
2019-May-16 00:00N 51°36' W 005°54'1827.4 110 / 171015.010.8 16.5 11.8
2019-May-15 23:20N 51°54' W 005°54'720.5
2019-May-15 23:00N 52°01' W 005°52'1020.5
2019-May-15 22:30N 52°11' W 005°49'1020.2
2019-May-15 22:00N 52°21' W 005°47'1220.0
2019-May-15 21:24N 52°33' W 005°43'819.3
2019-May-15 21:00N 52°40' W 005°42'918.9
2019-May-15 20:30N 52°50' W 005°39'918.5
2019-May-15 20:00N 52°59' W 005°36'917.4
2019-May-15 19:30N 53°07' W 005°37'917.4
2019-May-15 19:00N 53°15' W 005°43'815.8
2019-May-15 18:30N 53°21' W 005°53'812.0
2019-May-15 17:49N 53°20' W 006°07'0 0.0
2019-May-14 08:43N 53°21' W 006°08'4 7.8
2019-May-14 08:13N 53°21' W 006°01'313.9
2019-May-14 08:00N 53°22' W 005°57'713.4
2019-May-14 07:30N 53°25' W 005°46'713.9
2019-May-14 07:01N 53°30' W 005°38'815.0
2019-May-14 06:30N 53°37' W 005°35'815.9
2019-May-14 06:00N 53°44' W 005°31'1016.1
2019-May-14 05:24N 53°54' W 005°27'616.2
2019-May-14 05:00N 54°00' W 005°24'816.3
2019-May-14 04:30N 54°08' W 005°21'816.8
2019-May-14 04:01N 54°16' W 005°17'917.1
2019-May-14 03:30N 54°25' W 005°16'917.7
2019-May-14 03:00N 54°33' W 005°19'917.7
2019-May-14 02:30N 54°42' W 005°23'917.0
2019-May-14 02:00N 54°50' W 005°29'2817.7
2019-May-14 00:27N 55°12' W 005°56'716.7
2019-May-14 00:00N 55°18' W 006°05'815.5
2019-May-13 23:31N 55°22' W 006°16'917.0
2019-May-13 23:00N 55°25' W 006°31'816.2
2019-May-13 22:30N 55°28' W 006°44'816.0
2019-May-13 22:00N 55°34' W 006°52'815.3
2019-May-13 21:30N 55°41' W 006°58'816.3
2019-May-13 20:59N 55°50' W 007°00'67 3.7
2019-May-13 02:47N 56°56' W 006°52'4 5.7
2019-May-13 02:00N 57°00' W 006°48'33 1.6 150 / 251027.910.8 12.010.110.7
2019-May-12 05:53N 57°25' W 006°08'10 7.6
2019-May-12 04:38N 57°35' W 006°05'1 8.3
2019-May-12 04:28N 57°36' W 006°06'13 5.1
2019-May-12 02:00N 57°36' W 006°30'27 6.8 010 / 31027.910.8 8.0 9.6
2019-May-11 22:00N 57°12' W 006°54'87 6.7 320 / 121025.910.8 8.0 10.0
2019-May-11 08:55N 55°45' W 007°04'4 9.6
2019-May-11 08:30N 55°43' W 006°58'611.1
2019-May-11 08:00N 55°40' W 006°49'612.3
2019-May-11 07:30N 55°36' W 006°41'612.4
2019-May-11 07:00N 55°33' W 006°32'612.5
2019-May-11 06:30N 55°29' W 006°23'611.7
2019-May-11 06:00N 55°26' W 006°14'611.5
2019-May-11 05:30N 55°25' W 006°04'611.3
2019-May-11 05:00N 55°21' W 005°57'611.8
2019-May-11 04:30N 55°16' W 005°51'611.6
2019-May-11 04:00N 55°14' W 005°41'2410.0
2019-May-11 01:38N 55°22' W 005°02'1710.0
2019-May-10 23:54N 55°39' W 004°59'511.7
2019-May-10 23:30N 55°44' W 004°59'611.9
2019-May-10 23:00N 55°50' W 004°57'815.0
2019-May-10 22:30N 55°57' W 004°53'4 8.3
2019-May-10 22:00N 55°57' W 004°46'0 0.2
2019-May-10 21:25N 55°57' W 004°46'0 0.0
2019-May-10 20:58N 55°57' W 004°46'0 0.0
2019-May-10 20:28N 55°57' W 004°46'0 0.0
2019-May-10 19:55N 55°57' W 004°46'0 0.0
2019-May-10 19:25N 55°57' W 004°46'0 0.0
2019-May-10 18:58N 55°57' W 004°46'0 0.0
2019-May-10 18:28N 55°57' W 004°46'0 0.0
2019-May-10 17:43N 55°57' W 004°46'0 0.0
2019-May-10 17:25N 55°57' W 004°46'  
Track history (hours):
 
Tides and Currents Weather Stations Pressure Air Temp Water Temp Dewpoint Dewpoint Depression Visibility Wind Speed Wind Dir Waves Ship Positions

Prinsendam

Operator: Holland America Line

Last reported at 2019-May-20 17:01 UTC. Time now 2019-May-20 17:28 UTC.
Position N 52°28' E 004°36'.

Type: Ship. MMSI: 244126000.

Date/timePositionNaut miles runAvg speedWind from/ knotsBaromVisibWave heightAir tempDewpointWater temp
2019-May-20 17:01N 52°28' E 004°36'2 3.4
2019-May-20 16:30N 52°28' E 004°39'5 9.0
2019-May-20 16:00N 52°26' E 004°46'4 8.0
2019-May-20 15:30N 52°25' E 004°52'3 5.2
2019-May-20 15:01N 52°23' E 004°55'0 0.0
2019-May-20 14:30N 52°23' E 004°55'0 0.0
2019-May-20 14:00N 52°23' E 004°55'0 0.0
2019-May-20 13:30N 52°23' E 004°55'0 0.0
2019-May-20 13:00N 52°23' E 004°55'0 0.0
2019-May-20 12:30N 52°23' E 004°55'0 0.0
2019-May-20 12:00N 52°23' E 004°55'0 0.0
2019-May-20 11:30N 52°23' E 004°55'0 0.0
2019-May-20 11:00N 52°23' E 004°55'0 0.0
2019-May-20 10:30N 52°23' E 004°55'0 0.0
2019-May-20 10:00N 52°23' E 004°55'0 0.0
2019-May-20 09:30N 52°23' E 004°55'0 0.0
2019-May-20 09:00N 52°23' E 004°55'0 0.0
2019-May-20 08:30N 52°23' E 004°55'0 0.0
2019-May-20 08:00N 52°23' E 004°55'0 0.0
2019-May-20 07:30N 52°23' E 004°55'0 0.0
2019-May-20 06:57N 52°23' E 004°55'0 0.0
2019-May-20 06:30N 52°23' E 004°55'0 0.0
2019-May-20 06:00N 52°23' E 004°55'0 0.0
2019-May-20 05:30N 52°23' E 004°55'0 0.1
2019-May-20 05:01N 52°23' E 004°55'1 2.1
2019-May-20 04:30N 52°23' E 004°54'3 7.0
2019-May-20 04:00N 52°25' E 004°49'4 7.5
2019-May-20 03:31N 52°26' E 004°43'4 7.4
2019-May-20 03:01N 52°28' E 004°37'1 1.1
2019-May-20 02:31N 52°28' E 004°37'2 4.2
2019-May-20 02:01N 52°28' E 004°33'510.4
2019-May-20 01:30N 52°29' E 004°25'510.6
2019-May-20 01:00N 52°29' E 004°16'713.6
2019-May-20 00:31N 52°28' E 004°05'714.5
2019-May-20 00:00N 52°27' E 003°53'917.5
2019-May-19 23:30N 52°25' E 003°39'816.1
2019-May-19 23:00N 52°19' E 003°30'816.7
2019-May-19 22:30N 52°11' E 003°26'1514.7
2019-May-19 21:30N 51°56' E 003°23'713.3
2019-May-19 21:00N 51°50' E 003°19'712.8
2019-May-19 20:29N 51°44' E 003°15'4 7.8
2019-May-19 19:58N 51°41' E 003°19'511.4
2019-May-19 19:30N 51°36' E 003°23'4 9.0
2019-May-19 19:00N 51°32' E 003°26'510.6
2019-May-19 18:31N 51°28' E 003°31'4 8.2
2019-May-19 18:01N 51°26' E 003°37'611.5
2019-May-19 17:30N 51°22' E 003°44'816.0
2019-May-19 17:00N 51°23' E 003°57'4 7.1
2019-May-19 16:30N 51°23' E 004°02'612.8
2019-May-19 16:01N 51°23' E 004°13'5 9.7
2019-May-19 15:30N 51°19' E 004°16'3 7.0
2019-May-19 15:00N 51°16' E 004°18'3 6.8
2019-May-19 14:30N 51°14' E 004°23'1 2.4
2019-May-19 14:00N 51°13' E 004°24'0 0.0
2019-May-19 13:31N 51°13' E 004°24'0 0.0
2019-May-19 12:57N 51°13' E 004°24'0 0.0
2019-May-19 12:30N 51°13' E 004°24'0 0.0
2019-May-19 12:00N 51°13' E 004°24'0 0.0
2019-May-19 11:30N 51°13' E 004°24'0 0.0
2019-May-19 11:00N 51°13' E 004°24'0 0.0
2019-May-19 10:30N 51°13' E 004°24'0 0.0
2019-May-19 10:00N 51°13' E 004°24'0 0.0
2019-May-19 09:30N 51°13' E 004°24'0 0.0
2019-May-19 09:00N 51°13' E 004°24'0 0.0
2019-May-19 08:30N 51°13' E 004°24'0 0.0
2019-May-19 08:00N 51°13' E 004°24'0 0.0
2019-May-19 07:30N 51°13' E 004°24'0 0.0
2019-May-19 07:00N 51°13' E 004°24'0 0.0
2019-May-19 06:30N 51°13' E 004°24'0 0.0
2019-May-19 06:01N 51°13' E 004°24'0 0.0
2019-May-19 05:30N 51°13' E 004°24'0 0.0
2019-May-19 05:00N 51°13' E 004°24'0 0.0
2019-May-19 04:30N 51°13' E 004°24'0 0.0
2019-May-19 04:01N 51°13' E 004°24'0 0.0
2019-May-19 03:30N 51°13' E 004°24'0 0.0
2019-May-19 03:00N 51°13' E 004°24'0 0.0
2019-May-19 02:30N 51°13' E 004°24'0 0.0
2019-May-19 02:01N 51°13' E 004°24'0 0.0
2019-May-19 01:30N 51°13' E 004°24'0 0.0
2019-May-19 01:00N 51°13' E 004°24'0 0.0
2019-May-19 00:31N 51°13' E 004°24'0 0.0
2019-May-19 00:00N 51°13' E 004°24'0 0.0
2019-May-18 23:30N 51°13' E 004°24'0 0.0
2019-May-18 23:00N 51°13' E 004°24'0 0.0
2019-May-18 22:30N 51°13' E 004°24'0 0.0
2019-May-18 22:00N 51°13' E 004°24'0 0.0
2019-May-18 21:30N 51°13' E 004°24'0 0.0
2019-May-18 21:00N 51°13' E 004°24'0 0.0
2019-May-18 20:30N 51°13' E 004°24'0 0.0
2019-May-18 20:00N 51°13' E 004°24'0 0.0
2019-May-18 19:31N 51°13' E 004°24'0 0.0
2019-May-18 19:00N 51°13' E 004°24'0 0.0
2019-May-18 18:30N 51°13' E 004°24'0 0.0
2019-May-18 17:57N 51°13' E 004°24'0 0.0
2019-May-18 17:30N 51°13' E 004°24'0 0.0
2019-May-18 17:00N 51°13' E 004°24'0 0.0
2019-May-18 16:30N 51°13' E 004°24'0 0.0
2019-May-18 16:00N 51°13' E 004°24'0 0.0
2019-May-18 15:30N 51°13' E 004°24'0 0.0
2019-May-18 15:00N 51°13' E 004°24'0 0.0
2019-May-18 14:30N 51°13' E 004°24'0 0.0
2019-May-18 14:00N 51°13' E 004°24'0 0.0
2019-May-18 13:30N 51°13' E 004°24'0 0.0
2019-May-18 13:00N 51°13' E 004°24'0 0.0
2019-May-18 12:30N 51°13' E 004°24'0 0.0
2019-May-18 12:00N 51°13' E 004°24'0 0.0
2019-May-18 11:30N 51°13' E 004°24'0 0.0
2019-May-18 11:00N 51°13' E 004°24'0 0.0
2019-May-18 10:30N 51°13' E 004°24'0 0.0
2019-May-18 10:00N 51°13' E 004°24'0 0.0
2019-May-18 09:30N 51°13' E 004°24'0 0.0
2019-May-18 09:00N 51°13' E 004°24'0 0.0
2019-May-18 08:30N 51°13' E 004°24'0 0.0
2019-May-18 08:00N 51°13' E 004°24'0 0.0
2019-May-18 07:30N 51°13' E 004°24'0 0.0
2019-May-18 07:00N 51°13' E 004°24'0 0.0
2019-May-18 06:30N 51°13' E 004°24'0 0.0
2019-May-18 06:00N 51°13' E 004°24'0 0.0
2019-May-18 05:30N 51°13' E 004°24'0 0.0
2019-May-18 05:00N 51°13' E 004°24'0 0.0
2019-May-18 04:30N 51°13' E 004°24'0 0.0
2019-May-18 04:00N 51°13' E 004°24'0 0.0
2019-May-18 03:30N 51°13' E 004°24'0 0.0
2019-May-18 03:00N 51°13' E 004°24'0 0.0
2019-May-18 02:30N 51°13' E 004°24'0 0.0
2019-May-18 02:00N 51°13' E 004°24'0 0.6
2019-May-18 01:30N 51°14' E 004°24'3 6.4
2019-May-18 01:00N 51°15' E 004°19'4 8.2
2019-May-18 00:31N 51°19' E 004°16'510.7
2019-May-18 00:00N 51°24' E 004°12'713.0
2019-May-17 23:30N 51°23' E 004°02'4 7.3
2019-May-17 23:00N 51°23' E 003°56'612.3
2019-May-17 22:30N 51°21' E 003°47'611.5
2019-May-17 22:01N 51°26' E 003°41'510.1
2019-May-17 21:30N 51°25' E 003°33'612.1
2019-May-17 21:01N 51°24' E 003°24'713.9
2019-May-17 20:30N 51°24' E 003°12'3 6.2
2019-May-17 20:00N 51°21' E 003°12'1 1.2
2019-May-17 19:28N 51°20' E 003°12'0 0.0
2019-May-17 18:55N 51°20' E 003°12'0 0.0
2019-May-17 18:28N 51°20' E 003°12'0 0.0
2019-May-17 17:58N 51°20' E 003°12'0 0.0
2019-May-17 17:28N 51°20' E 003°12'0 0.0
2019-May-17 16:58N 51°20' E 003°12'0 0.0
2019-May-17 16:28N 51°20' E 003°12'0 0.0
2019-May-17 15:58N 51°20' E 003°12'0 0.0
2019-May-17 15:28N 51°20' E 003°12'0 0.0
2019-May-17 14:58N 51°20' E 003°12'0 0.0
2019-May-17 14:28N 51°20' E 003°12'0 0.0
2019-May-17 13:58N 51°20' E 003°12'0 0.0
2019-May-17 13:28N 51°20' E 003°12'0 0.0
2019-May-17 13:01N 51°20' E 003°12'0 0.0
2019-May-17 12:31N 51°20' E 003°12'0 0.0
2019-May-17 12:01N 51°20' E 003°12'0 0.0
2019-May-17 11:28N 51°20' E 003°12'0 0.0
2019-May-17 10:58N 51°20' E 003°12'0 0.0
2019-May-17 10:28N 51°20' E 003°12'0 0.0
2019-May-17 09:58N 51°20' E 003°12'0 0.0
2019-May-17 09:28N 51°20' E 003°12'0 0.0
2019-May-17 08:58N 51°20' E 003°12'0 0.0
2019-May-17 08:25N 51°20' E 003°12'0 0.0
2019-May-17 07:58N 51°20' E 003°12'0 0.0
2019-May-17 07:31N 51°20' E 003°12'0 0.0
2019-May-17 06:58N 51°20' E 003°12'0 0.0
2019-May-17 06:25N 51°20' E 003°12'0 0.0
2019-May-17 05:52N 51°20' E 003°12'0 0.4
2019-May-17 05:30N 51°20' E 003°13'5 7.2
2019-May-17 04:50N 51°24' E 003°07'413.3
2019-May-17 04:30N 51°25' E 002°60'714.1
2019-May-17 04:00N 51°25' E 002°49'910.5
2019-May-17 03:06N 51°22' E 002°34'210.7
2019-May-17 02:56N 51°22' E 002°32'614.1
2019-May-17 02:30N 51°20' E 002°23'714.8
2019-May-17 02:00N 51°15' E 002°13'714.9
2019-May-17 01:30N 51°12' E 002°03'816.0
2019-May-17 01:00N 51°08' E 001°51'816.4
2019-May-17 00:30N 51°03' E 001°41'917.4
2019-May-17 00:00N 50°57' E 001°31'1017.3
2019-May-16 23:27N 50°48' E 001°25'1216.2
2019-May-16 22:44N 50°39' E 001°14'715.8
2019-May-16 22:15N 50°33' E 001°06'615.6
2019-May-16 21:54N 50°30' E 000°59'815.3
2019-May-16 21:24N 50°27' E 000°48'915.3
2019-May-16 20:49N 50°25' E 000°34'515.5
2019-May-16 20:30N 50°26' E 000°27'815.7
2019-May-16 20:01N 50°24' E 000°15'816.3
2019-May-16 19:31N 50°22' E 000°02'917.4
2019-May-16 19:00N 50°19' W 000°11'1019.7
2019-May-16 18:30N 50°15' W 000°25'1020.1
2019-May-16 18:01N 50°14' W 000°40'1020.2
2019-May-16 17:31N 50°11' W 000°56'1020.1
2019-May-16 17:00N 50°09' W 001°11'1019.8
2019-May-16 16:30N 50°07' W 001°26'1019.2
2019-May-16 16:00N 50°05' W 001°41'918.6
2019-May-16 15:30N 50°03' W 001°55'918.0
2019-May-16 15:00N 50°00' W 002°08'917.4
2019-May-16 14:30N 49°58' W 002°21'817.0
2019-May-16 14:01N 49°55' W 002°34'816.7
2019-May-16 13:30N 49°53' W 002°46'816.8
2019-May-16 13:00N 49°51' W 002°59'816.6
2019-May-16 12:30N 49°50' W 003°11'816.6
2019-May-16 12:00N 49°49' W 003°24'816.4
2019-May-16 11:30N 49°49' W 003°37'816.5
2019-May-16 11:01N 49°49' W 003°50'816.6
2019-May-16 10:30N 49°49' W 004°03'816.6
2019-May-16 10:00N 49°49' W 004°16'1216.5
2019-May-16 09:18N 49°48' W 004°34'816.5
2019-May-16 08:47N 49°48' W 004°47'516.6
2019-May-16 08:30N 49°48' W 004°54'816.5
2019-May-16 08:01N 49°48' W 005°07'816.6
2019-May-16 07:30N 49°48' W 005°20'1017.0
2019-May-16 06:54N 49°47' W 005°36'1117.3
2019-May-16 06:16N 49°48' W 005°52'1118.6
2019-May-16 05:41N 49°58' W 006°01'517.6
2019-May-16 05:24N 50°03' W 006°01'718.9
2019-May-16 05:00N 50°10' W 006°01'628870.7
2019-May-16 05:00N 51°12' W 006°00'4759.0 100 / 231011.010.8 13.011.111.8
2019-May-16 04:12N 50°25' W 006°01'2217.5
2019-May-16 02:57N 50°47' W 006°01'917.4
2019-May-16 02:27N 50°56' W 006°00'817.6
2019-May-16 02:00N 51°03' W 006°00'918.1
2019-May-16 01:30N 51°13' W 005°60'918.7
2019-May-16 01:00N 51°22' W 005°60'1019.1
2019-May-16 00:30N 51°31' W 005°60'1019.3
2019-May-16 00:00N 51°41' W 005°59'61077.7
2019-May-16 00:00N 51°36' W 005°54'1827.4 110 / 171015.010.8 16.5 11.8
2019-May-15 23:20N 51°54' W 005°54'720.5
2019-May-15 23:00N 52°01' W 005°52'1020.5
2019-May-15 22:30N 52°11' W 005°49'1020.2
2019-May-15 22:00N 52°21' W 005°47'1220.0
2019-May-15 21:24N 52°33' W 005°43'819.3
2019-May-15 21:00N 52°40' W 005°42'918.9
2019-May-15 20:30N 52°50' W 005°39'918.5
2019-May-15 20:00N 52°59' W 005°36'917.4
2019-May-15 19:30N 53°07' W 005°37'917.4
2019-May-15 19:00N 53°15' W 005°43'815.8
2019-May-15 18:30N 53°21' W 005°53'812.0
2019-May-15 17:49N 53°20' W 006°07'0 0.0
2019-May-14 08:43N 53°21' W 006°08'4 7.8
2019-May-14 08:13N 53°21' W 006°01'313.9
2019-May-14 08:00N 53°22' W 005°57'713.4
2019-May-14 07:30N 53°25' W 005°46'713.9
2019-May-14 07:01N 53°30' W 005°38'815.0
2019-May-14 06:30N 53°37' W 005°35'815.9
2019-May-14 06:00N 53°44' W 005°31'1016.1
2019-May-14 05:24N 53°54' W 005°27'616.2
2019-May-14 05:00N 54°00' W 005°24'816.3
2019-May-14 04:30N 54°08' W 005°21'816.8
2019-May-14 04:01N 54°16' W 005°17'917.1
2019-May-14 03:30N 54°25' W 005°16'917.7
2019-May-14 03:00N 54°33' W 005°19'917.7
2019-May-14 02:30N 54°42' W 005°23'917.0
2019-May-14 02:00N 54°50' W 005°29'2817.7
2019-May-14 00:27N 55°12' W 005°56'716.7
2019-May-14 00:00N 55°18' W 006°05'815.5
2019-May-13 23:31N 55°22' W 006°16'917.0
2019-May-13 23:00N 55°25' W 006°31'816.2
2019-May-13 22:30N 55°28' W 006°44'816.0
2019-May-13 22:00N 55°34' W 006°52'815.3
2019-May-13 21:30N 55°41' W 006°58'816.3
2019-May-13 20:59N 55°50' W 007°00'67 3.7
2019-May-13 02:47N 56°56' W 006°52'4 5.7
2019-May-13 02:00N 57°00' W 006°48'33 1.6 150 / 251027.910.8 12.010.110.7
2019-May-12 05:53N 57°25' W 006°08'10 7.6
2019-May-12 04:38N 57°35' W 006°05'1 8.3
2019-May-12 04:28N 57°36' W 006°06'13 5.1
2019-May-12 02:00N 57°36' W 006°30'27 6.8 010 / 31027.910.8 8.0 9.6
2019-May-11 22:00N 57°12' W 006°54'87 6.7 320 / 121025.910.8 8.0 10.0
2019-May-11 08:55N 55°45' W 007°04'4 9.6
2019-May-11 08:30N 55°43' W 006°58'611.1
2019-May-11 08:00N 55°40' W 006°49'612.3
2019-May-11 07:30N 55°36' W 006°41'612.4
2019-May-11 07:00N 55°33' W 006°32'612.5
2019-May-11 06:30N 55°29' W 006°23'611.7
2019-May-11 06:00N 55°26' W 006°14'611.5
2019-May-11 05:30N 55°25' W 006°04'611.3
2019-May-11 05:00N 55°21' W 005°57'611.8
2019-May-11 04:30N 55°16' W 005°51'611.6
2019-May-11 04:00N 55°14' W 005°41'2410.0
2019-May-11 01:38N 55°22' W 005°02'1710.0
2019-May-10 23:54N 55°39' W 004°59'511.7
2019-May-10 23:30N 55°44' W 004°59'611.9
2019-May-10 23:00N 55°50' W 004°57'815.0
2019-May-10 22:30N 55°57' W 004°53'4 8.3
2019-May-10 22:00N 55°57' W 004°46'0 0.2
2019-May-10 21:25N 55°57' W 004°46'0 0.0
2019-May-10 20:58N 55°57' W 004°46'0 0.0
2019-May-10 20:28N 55°57' W 004°46'0 0.0
2019-May-10 19:55N 55°57' W 004°46'0 0.0
2019-May-10 19:25N 55°57' W 004°46'0 0.0
2019-May-10 18:58N 55°57' W 004°46'0 0.0
2019-May-10 18:28N 55°57' W 004°46'0 0.0
2019-May-10 17:43N 55°57' W 004°46'0 0.0
2019-May-10 17:25N 55°57' W 004°46'  

Dump ship's entire track history